createdAt,value
2023-01-12T01:50:59.213Z,6.18
2023-01-12T01:53:29.437Z,7.38
2023-01-12T01:56:00.169Z,7.95
2023-01-12T01:58:33.092Z,5.75
2023-01-12T02:01:01.718Z,6.68
2023-01-12T02:03:32.078Z,8.82
2023-01-12T02:06:01.246Z,9.70
2023-01-12T02:09:16.225Z,7.70
2023-01-12T02:12:06.271Z,5.90
2023-01-12T02:14:56.423Z,9.07
2023-01-12T02:17:53.699Z,10.68
2023-01-12T02:20:24.616Z,9.68
2023-01-12T02:23:19.712Z,6.85
2023-01-12T02:26:25.204Z,8.50
2023-01-12T02:29:11.946Z,11.63
2023-01-12T02:31:55.534Z,13.07
2023-01-12T02:34:39.478Z,15.52
2023-01-12T02:37:39.558Z,16.73
2023-01-12T02:40:31.126Z,13.45
2023-01-12T02:43:03.655Z,9.38
2023-01-12T02:45:43.246Z,9.32
2023-01-12T02:48:21.034Z,16.58
2023-01-12T02:51:22.541Z,11.43
2023-01-12T02:54:04.527Z,9.98
2023-01-12T02:57:07.179Z,6.03
2023-01-12T02:59:37.653Z,6.32
2023-01-12T03:02:09.327Z,4.90
2023-01-12T03:04:46.066Z,5.85
2023-01-12T03:07:49.723Z,6.50
2023-01-12T03:10:47.627Z,7.95
2023-01-12T03:13:16.475Z,7.28
2023-01-12T03:15:50.181Z,6.45
2023-01-12T03:18:35.200Z,7.95
2023-01-12T03:21:29.182Z,16.95
2023-01-12T03:24:02.546Z,7.95
2023-01-12T03:26:32.376Z,6.60
2023-01-12T03:29:34.828Z,7.47
2023-01-12T03:32:04.104Z,6.82
2023-01-12T03:34:33.072Z,6.30
2023-01-12T03:37:18.579Z,10.10
2023-01-12T03:39:50.727Z,10.45
2023-01-12T03:42:26.891Z,8.70
2023-01-12T03:44:58.353Z,8.18
2023-01-12T03:47:29.551Z,7.50
2023-01-12T03:50:19.228Z,7.45
2023-01-12T03:52:55.790Z,7.00
2023-01-12T03:55:24.956Z,6.82
2023-01-12T03:57:53.022Z,6.75
2023-01-12T04:00:21.297Z,7.43
2023-01-12T04:02:51.790Z,6.85
2023-01-12T04:05:20.909Z,7.75
2023-01-12T04:07:49.271Z,8.75
2023-01-12T04:10:18.231Z,5.40
2023-01-12T04:12:46.411Z,6.13
2023-01-12T04:15:16.107Z,5.90
2023-01-12T04:17:48.272Z,6.72
2023-01-12T04:20:18.332Z,9.40
2023-01-12T04:22:55.143Z,7.85
2023-01-12T04:25:23.259Z,4.70
2023-01-12T04:27:53.745Z,4.72
2023-01-12T04:30:24.088Z,4.95
2023-01-12T04:32:54.460Z,5.90
2023-01-12T04:35:31.076Z,5.43
2023-01-12T04:38:04.602Z,5.28
2023-01-12T04:40:34.245Z,6.38
2023-01-12T04:43:12.290Z,5.35
2023-01-12T04:45:43.895Z,4.18
2023-01-12T04:48:14.379Z,4.93
2023-01-12T04:50:43.225Z,4.47
2023-01-12T04:53:16.326Z,4.85
2023-01-12T04:55:45.447Z,5.25
2023-01-12T04:58:46.800Z,5.45
2023-01-12T05:01:17.216Z,4.60
2023-01-12T05:03:46.320Z,6.03
2023-01-12T05:06:15.074Z,6.32
2023-01-12T05:09:05.624Z,5.45
2023-01-12T05:11:43.323Z,6.60
2023-01-12T05:14:21.509Z,5.85
2023-01-12T05:16:51.205Z,5.18
2023-01-12T05:19:20.821Z,6.07
2023-01-12T05:21:48.997Z,5.07
2023-01-12T05:24:27.064Z,5.80
2023-01-12T05:26:57.665Z,5.00
2023-01-12T05:39:34.520Z,5.20
2023-01-12T05:42:21.402Z,5.55
2023-01-12T05:44:50.034Z,4.53
2023-01-12T05:47:18.322Z,4.40
2023-01-12T05:49:46.747Z,5.25
2023-01-12T05:52:21.148Z,3.92
2023-01-12T05:54:49.460Z,5.28
2023-01-12T05:57:24.489Z,5.35
2023-01-12T05:59:52.653Z,11.95
2023-01-12T06:02:25.847Z,6.13
2023-01-12T06:04:58.279Z,7.82
2023-01-12T06:07:31.251Z,7.53
2023-01-12T06:10:08.574Z,8.23
2023-01-12T06:12:57.602Z,7.20
2023-01-12T06:15:28.769Z,7.15
2023-01-12T06:17:59.294Z,7.05
2023-01-12T06:20:29.286Z,6.25
2023-01-12T06:23:05.076Z,5.15
2023-01-12T06:28:14.145Z,4.60
2023-01-12T06:30:59.179Z,4.85
2023-01-12T06:33:27.902Z,7.53
2023-01-12T06:35:59.719Z,9.63
2023-01-12T06:38:33.565Z,7.88
2023-01-12T06:41:06.199Z,11.77
2023-01-12T06:44:09.235Z,12.35
2023-01-12T06:46:41.231Z,10.38
2023-01-12T06:49:20.687Z,10.98
2023-01-12T06:51:59.166Z,11.55
2023-01-12T06:54:28.383Z,9.55
2023-01-12T06:56:56.663Z,14.40
2023-01-12T06:59:25.223Z,28.33
2023-01-12T07:02:01.314Z,23.23
2023-01-12T10:35:03.493Z,5.72
2023-01-12T10:37:33.367Z,6.30
2023-01-12T10:40:03.685Z,5.70
2023-01-12T10:42:54.337Z,6.25
2023-01-12T10:45:23.841Z,5.80
2023-01-12T10:47:56.313Z,6.40
2023-01-12T10:50:28.104Z,8.77
2023-01-12T10:53:05.913Z,13.38
2023-01-12T10:55:36.531Z,12.60
2023-01-12T10:58:04.466Z,9.45
2023-01-12T11:00:32.659Z,10.70
2023-01-12T11:03:01.106Z,11.80
2023-01-12T11:05:39.357Z,11.48
2023-01-12T11:08:36.721Z,10.63
2023-01-12T11:11:28.307Z,11.57
2023-01-12T11:13:58.306Z,11.75
2023-01-12T11:16:31.004Z,7.63
2023-01-12T11:19:16.925Z,6.25
2023-01-12T11:21:51.916Z,5.53
2023-01-12T11:24:47.671Z,6.03
2023-01-12T11:27:27.489Z,6.63
2023-01-12T11:29:59.424Z,6.45
2023-01-12T11:32:37.850Z,6.93
2023-01-12T11:35:17.561Z,6.50
2023-01-12T11:37:45.558Z,5.75
2023-01-12T11:40:33.182Z,7.80
2023-01-12T11:43:45.681Z,7.78
2023-01-12T11:46:24.945Z,7.40
2023-01-12T11:49:23.643Z,9.52
2023-01-12T11:51:58.735Z,7.25
2023-01-12T11:54:27.313Z,8.20
2023-01-12T11:57:11.042Z,7.57
2023-01-12T12:00:20.780Z,7.47
2023-01-12T12:02:48.816Z,7.22
2023-01-12T12:05:25.434Z,6.88
2023-01-12T12:07:55.939Z,6.38
2023-01-12T12:10:44.770Z,8.57
2023-01-12T12:13:27.909Z,7.75
2023-01-12T12:16:05.767Z,9.32
2023-01-12T12:19:11.015Z,8.40
2023-01-12T12:22:01.865Z,13.05
2023-01-12T12:24:47.007Z,12.10
2023-01-12T12:27:46.612Z,10.80
2023-01-12T12:30:20.343Z,10.05
2023-01-12T12:33:07.483Z,11.23
2023-01-12T12:35:44.741Z,10.63
2023-01-12T12:38:38.870Z,10.50
2023-01-12T12:41:42.305Z,7.85
2023-01-12T12:44:51.621Z,7.75
2023-01-12T12:47:57.248Z,7.22
2023-01-12T12:50:45.704Z,8.77
2023-01-12T12:53:29.068Z,7.03
2023-01-12T12:55:59.373Z,6.07
2023-01-12T12:58:29.740Z,8.07
2023-01-12T13:01:21.523Z,6.97
2023-01-12T13:03:55.368Z,9.85
2023-01-12T13:06:45.384Z,8.98
2023-01-12T13:09:33.667Z,8.75
2023-01-12T13:12:04.646Z,9.43
2023-01-12T13:14:40.510Z,8.32
2023-01-12T13:17:21.173Z,7.47
2023-01-12T13:20:08.251Z,8.05
2023-01-12T13:22:46.038Z,7.63
2023-01-12T13:25:19.765Z,5.07
2023-01-12T13:27:52.462Z,6.32
2023-01-12T13:30:29.881Z,6.38
2023-01-12T13:33:16.105Z,7.70
2023-01-12T13:38:25.072Z,7.55
2023-01-12T13:40:55.852Z,7.60
2023-01-12T13:43:28.921Z,8.07
2023-01-12T13:46:27.146Z,8.50
2023-01-12T13:48:56.786Z,8.23
2023-01-12T13:51:49.035Z,8.45
2023-01-12T13:54:17.569Z,7.57
2023-01-12T13:56:54.560Z,8.95
2023-01-12T13:59:24.962Z,11.48
2023-01-12T14:01:52.905Z,9.73
2023-01-12T14:04:34.554Z,9.38
2023-01-12T14:07:14.988Z,8.32
2023-01-12T14:10:00.090Z,7.53
2023-01-12T14:12:50.539Z,6.90
2023-01-12T14:15:55.547Z,8.50
2023-01-12T14:18:46.312Z,10.98
2023-01-12T14:21:25.912Z,15.45
2023-01-12T14:23:54.265Z,8.27
2023-01-12T14:26:24.273Z,9.30
2023-01-12T14:28:52.547Z,6.25
2023-01-12T14:31:20.635Z,6.13
2023-01-12T14:33:50.963Z,6.53
2023-01-12T14:36:25.882Z,6.30
2023-01-12T14:38:54.795Z,8.07
2023-01-12T14:41:43.797Z,7.40
2023-01-12T14:44:38.171Z,6.40
2023-01-12T14:47:06.371Z,8.70
2023-01-12T14:49:36.538Z,8.55
2023-01-12T14:52:13.796Z,8.32
2023-01-12T14:54:42.000Z,6.97
2023-01-12T14:57:37.215Z,6.35
2023-01-12T15:00:07.448Z,8.07
2023-01-12T15:02:42.638Z,6.75
2023-01-12T15:05:10.610Z,7.95
2023-01-12T15:07:41.551Z,10.10
2023-01-12T15:10:09.667Z,10.88
2023-01-12T15:12:44.342Z,10.27
2023-01-12T15:15:26.111Z,7.30
2023-01-12T15:18:13.899Z,7.22
2023-01-12T15:21:03.704Z,7.03
2023-01-12T15:23:52.690Z,7.72
2023-01-12T15:26:20.941Z,7.28
2023-01-12T15:28:49.538Z,9.07
2023-01-12T15:31:28.659Z,9.35
2023-01-12T15:33:56.842Z,9.95
2023-01-12T15:36:24.978Z,10.05
2023-01-12T15:38:53.000Z,10.32
2023-01-12T15:41:44.276Z,9.60
2023-01-12T15:44:19.661Z,10.23
2023-01-12T15:46:47.877Z,10.95
2023-01-12T15:49:15.750Z,13.55
2023-01-12T15:51:46.789Z,11.52
2023-01-12T15:54:15.605Z,8.20
2023-01-12T15:56:43.812Z,9.73
2023-01-12T15:59:11.755Z,9.88
2023-01-12T16:01:47.226Z,7.20
2023-01-12T16:04:42.054Z,7.10
2023-01-12T20:11:33.445Z,11.32
2023-01-12T20:14:01.222Z,11.32
2023-01-12T20:16:30.106Z,13.88
2023-01-12T20:18:59.943Z,15.07
2023-01-12T20:21:28.085Z,13.10
2023-01-12T20:23:55.904Z,13.07
2023-01-12T20:26:23.655Z,8.88
2023-01-12T20:28:51.730Z,13.50
2023-01-12T20:31:21.246Z,13.80
2023-01-12T20:33:49.288Z,12.77
2023-01-12T20:36:17.695Z,11.65
2023-01-12T20:38:47.043Z,10.48
2023-01-12T20:41:15.071Z,10.30
2023-01-12T20:43:45.462Z,10.25
2023-01-12T20:46:14.236Z,10.43
2023-01-12T20:48:42.755Z,10.65
2023-01-12T20:51:11.922Z,11.32
2023-01-12T20:53:40.610Z,11.45
2023-01-12T20:56:09.834Z,13.48
2023-01-12T20:58:38.489Z,14.73
2023-01-12T21:01:13.347Z,15.48
2023-01-12T21:03:41.436Z,16.17
2023-01-12T21:06:10.480Z,17.10
2023-01-12T21:08:39.922Z,16.67
2023-01-12T21:11:08.146Z,16.63
2023-01-12T21:13:37.505Z,17.35
2023-01-12T21:16:07.215Z,15.63
2023-01-12T21:18:35.825Z,15.23
2023-01-12T21:21:04.737Z,17.60
2023-01-12T21:23:33.008Z,17.85
2023-01-12T21:26:01.273Z,14.27
2023-01-12T21:28:30.498Z,12.80
2023-01-12T21:31:01.914Z,12.55
2023-01-12T21:33:30.664Z,12.93
2023-01-12T21:35:58.615Z,10.93
2023-01-12T21:38:27.284Z,11.68
2023-01-12T21:40:55.802Z,10.90
2023-01-12T21:43:23.593Z,10.07
2023-01-12T21:45:53.039Z,9.65
2023-01-12T21:48:22.542Z,10.73
2023-01-12T21:50:50.480Z,14.82
2023-01-12T21:53:20.190Z,15.70
2023-01-12T21:55:55.613Z,18.60
2023-01-12T21:58:26.833Z,17.02
2023-01-12T22:00:56.242Z,12.00
2023-01-12T22:03:25.273Z,10.27
2023-01-12T22:05:53.787Z,8.63
2023-01-12T22:08:22.206Z,24.17
2023-01-12T22:10:50.358Z,13.23
2023-01-12T22:13:19.738Z,9.80
2023-01-12T22:15:51.120Z,9.10
2023-01-12T22:18:19.192Z,10.48
2023-01-12T22:20:48.901Z,7.60
2023-01-12T22:23:16.986Z,11.68
2023-01-12T22:25:44.981Z,13.30
2023-01-12T22:28:12.900Z,13.55
2023-01-12T22:30:43.391Z,13.85
2023-01-12T22:33:12.480Z,10.73
2023-01-12T22:35:40.741Z,10.77
2023-01-12T22:38:08.609Z,10.38
2023-01-12T22:40:36.397Z,10.30
2023-01-12T22:43:22.681Z,10.68
2023-01-12T22:48:27.010Z,11.83
2023-01-12T22:50:55.877Z,12.93
2023-01-12T22:53:24.297Z,12.43
2023-01-12T22:55:55.203Z,14.30
2023-01-12T22:58:23.187Z,11.90
2023-01-12T23:00:52.748Z,10.10
2023-01-12T23:03:21.430Z,8.55
2023-01-12T23:05:51.909Z,9.43
2023-01-12T23:08:20.070Z,8.68
2023-01-12T23:10:47.982Z,9.25
2023-01-12T23:13:19.949Z,10.43
2023-01-12T23:15:49.418Z,10.55
2023-01-12T23:18:28.102Z,11.35
2023-01-12T23:21:11.475Z,11.80
2023-01-12T23:23:39.453Z,13.27
2023-01-12T23:26:11.508Z,12.70
2023-01-12T23:28:42.785Z,13.15
2023-01-12T23:31:14.542Z,16.42
2023-01-12T23:33:43.379Z,20.00
2023-01-12T23:36:13.745Z,22.15
2023-01-12T23:38:43.442Z,19.25
2023-01-12T23:41:16.825Z,17.25
2023-01-12T23:43:45.657Z,14.70
2023-01-12T23:46:17.289Z,13.38
2023-01-12T23:49:21.675Z,13.68
2023-01-12T23:51:56.255Z,17.63
2023-01-12T23:54:24.519Z,16.33
2023-01-12T23:56:53.514Z,14.02
2023-01-12T23:59:21.487Z,12.70
